sensor_id;sensor_type;location;lat;lon;timestamp;temperature;humidity
3994;DHT22;2011;48.238;13.948;2022-12-18T00:00:45;-4.70;99.90
3994;DHT22;2011;48.238;13.948;2022-12-18T00:03:13;-4.70;99.90
3994;DHT22;2011;48.238;13.948;2022-12-18T00:05:46;-4.70;99.90
3994;DHT22;2011;48.238;13.948;2022-12-18T00:08:13;-4.70;99.90
3994;DHT22;2011;48.238;13.948;2022-12-18T00:10:40;-4.70;99.90
3994;DHT22;2011;48.238;13.948;2022-12-18T00:13:07;-4.70;99.90
3994;DHT22;2011;48.238;13.948;2022-12-18T00:15:34;-4.70;99.90
3994;DHT22;2011;48.238;13.948;2022-12-18T00:18:03;-4.80;99.90
3994;DHT22;2011;48.238;13.948;2022-12-18T00:20:30;-4.90;99.90
3994;DHT22;2011;48.238;13.948;2022-12-18T00:22:57;-5.00;99.90
3994;DHT22;2011;48.238;13.948;2022-12-18T00:25:24;-5.00;99.90
3994;DHT22;2011;48.238;13.948;2022-12-18T00:27:51;-5.00;99.90
3994;DHT22;2011;48.238;13.948;2022-12-18T00:30:18;-5.00;99.90
3994;DHT22;2011;48.238;13.948;2022-12-18T00:32:45;-5.00;99.90
3994;DHT22;2011;48.238;13.948;2022-12-18T00:35:13;-5.00;99.90
3994;DHT22;2011;48.238;13.948;2022-12-18T00:37:40;-5.00;99.90
3994;DHT22;2011;48.238;13.948;2022-12-18T00:40:08;-5.00;99.90
3994;DHT22;2011;48.238;13.948;2022-12-18T00:42:35;-4.90;99.90
3994;DHT22;2011;48.238;13.948;2022-12-18T00:45:19;-4.90;99.90
3994;DHT22;2011;48.238;13.948;2022-12-18T00:47:46;-4.80;99.90
3994;DHT22;2011;48.238;13.948;2022-12-18T00:50:15;-4.80;99.90
3994;DHT22;2011;48.238;13.948;2022-12-18T00:52:42;-4.80;99.90
3994;DHT22;2011;48.238;13.948;2022-12-18T00:55:09;-4.80;99.90
3994;DHT22;2011;48.238;13.948;2022-12-18T00:57:36;-4.80;99.90
3994;DHT22;2011;48.238;13.948;2022-12-18T01:00:04;-4.70;99.90
3994;DHT22;2011;48.238;13.948;2022-12-18T01:02:32;-4.80;99.90
3994;DHT22;2011;48.238;13.948;2022-12-18T01:04:59;-4.70;99.90
3994;DHT22;2011;48.238;13.948;2022-12-18T01:07:27;-4.70;99.90
3994;DHT22;2011;48.238;13.948;2022-12-18T01:09:54;-4.70;99.90
3994;DHT22;2011;48.238;13.948;2022-12-18T01:12:21;-4.70;99.90
3994;DHT22;2011;48.238;13.948;2022-12-18T01:14:48;-4.70;99.90
3994;DHT22;2011;48.238;13.948;2022-12-18T01:17:14;-4.60;99.90
3994;DHT22;2011;48.238;13.948;2022-12-18T01:19:41;-4.60;99.90
3994;DHT22;2011;48.238;13.948;2022-12-18T01:22:08;-4.60;99.90
3994;DHT22;2011;48.238;13.948;2022-12-18T01:24:36;-4.50;99.90
3994;DHT22;2011;48.238;13.948;2022-12-18T01:27:03;-4.50;99.90
3994;DHT22;2011;48.238;13.948;2022-12-18T01:29:30;-4.50;99.90
3994;DHT22;2011;48.238;13.948;2022-12-18T01:31:57;-4.40;99.90
3994;DHT22;2011;48.238;13.948;2022-12-18T01:34:24;-4.40;99.90
3994;DHT22;2011;48.238;13.948;2022-12-18T01:36:51;-4.40;99.90
3994;DHT22;2011;48.238;13.948;2022-12-18T01:39:18;-4.40;99.90
3994;DHT22;2011;48.238;13.948;2022-12-18T01:41:47;-4.40;99.90
3994;DHT22;2011;48.238;13.948;2022-12-18T01:45:03;-4.30;99.90
3994;DHT22;2011;48.238;13.948;2022-12-18T01:47:35;-4.30;99.90
3994;DHT22;2011;48.238;13.948;2022-12-18T01:50:06;-4.30;99.90
3994;DHT22;2011;48.238;13.948;2022-12-18T01:52:33;-4.20;99.90
3994;DHT22;2011;48.238;13.948;2022-12-18T01:55:02;-4.20;99.90
3994;DHT22;2011;48.238;13.948;2022-12-18T01:57:31;-4.10;99.90
3994;DHT22;2011;48.238;13.948;2022-12-18T02:00:01;-4.20;99.90
3994;DHT22;2011;48.238;13.948;2022-12-18T02:02:29;-4.20;99.90
3994;DHT22;2011;48.238;13.948;2022-12-18T02:04:56;-4.10;99.90
3994;DHT22;2011;48.238;13.948;2022-12-18T02:07:33;-4.10;99.90
3994;DHT22;2011;48.238;13.948;2022-12-18T02:10:14;-4.10;99.90
3994;DHT22;2011;48.238;13.948;2022-12-18T02:12:49;-4.10;99.90
3994;DHT22;2011;48.238;13.948;2022-12-18T02:15:26;-4.10;99.90
3994;DHT22;2011;48.238;13.948;2022-12-18T02:17:56;-4.00;99.90
3994;DHT22;2011;48.238;13.948;2022-12-18T02:20:30;-4.00;99.90
3994;DHT22;2011;48.238;13.948;2022-12-18T02:23:06;-3.90;99.90
3994;DHT22;2011;48.238;13.948;2022-12-18T02:25:58;-3.90;99.90
3994;DHT22;2011;48.238;13.948;2022-12-18T02:28:31;-3.90;99.90
3994;DHT22;2011;48.238;13.948;2022-12-18T02:31:03;-3.90;99.90
3994;DHT22;2011;48.238;13.948;2022-12-18T02:33:32;-3.80;99.90
3994;DHT22;2011;48.238;13.948;2022-12-18T02:36:01;-3.80;99.90
3994;DHT22;2011;48.238;13.948;2022-12-18T02:38:29;-3.80;99.90
3994;DHT22;2011;48.238;13.948;2022-12-18T02:40:59;-3.70;99.90
3994;DHT22;2011;48.238;13.948;2022-12-18T02:43:26;-3.70;99.90
3994;DHT22;2011;48.238;13.948;2022-12-18T02:45:54;-3.70;99.90
3994;DHT22;2011;48.238;13.948;2022-12-18T02:48:25;-3.70;99.90
3994;DHT22;2011;48.238;13.948;2022-12-18T02:50:59;-3.70;99.90
3994;DHT22;2011;48.238;13.948;2022-12-18T02:53:36;-3.60;99.90
3994;DHT22;2011;48.238;13.948;2022-12-18T02:56:09;-3.60;99.90
3994;DHT22;2011;48.238;13.948;2022-12-18T02:58:44;-3.60;99.90
3994;DHT22;2011;48.238;13.948;2022-12-18T03:01:16;-3.60;99.90
3994;DHT22;2011;48.238;13.948;2022-12-18T03:03:51;-3.60;99.90
3994;DHT22;2011;48.238;13.948;2022-12-18T03:06:25;-3.60;99.90
3994;DHT22;2011;48.238;13.948;2022-12-18T03:08:57;-3.60;99.90
3994;DHT22;2011;48.238;13.948;2022-12-18T03:11:28;-3.60;99.90
3994;DHT22;2011;48.238;13.948;2022-12-18T03:14:16;-3.60;99.90
3994;DHT22;2011;48.238;13.948;2022-12-18T03:16:45;-3.60;99.90
3994;DHT22;2011;48.238;13.948;2022-12-18T03:19:16;-3.60;99.90
3994;DHT22;2011;48.238;13.948;2022-12-18T03:21:49;-3.60;99.90
3994;DHT22;2011;48.238;13.948;2022-12-18T03:24:19;-3.60;99.90
3994;DHT22;2011;48.238;13.948;2022-12-18T03:26:52;-3.50;99.90
3994;DHT22;2011;48.238;13.948;2022-12-18T03:29:22;-3.50;99.90
3994;DHT22;2011;48.238;13.948;2022-12-18T03:31:57;-3.50;99.90
3994;DHT22;2011;48.238;13.948;2022-12-18T03:34:31;-3.50;99.90
3994;DHT22;2011;48.238;13.948;2022-12-18T03:37:04;-3.50;99.90
3994;DHT22;2011;48.238;13.948;2022-12-18T03:39:31;-3.50;99.90
3994;DHT22;2011;48.238;13.948;2022-12-18T03:42:04;-3.40;99.90
3994;DHT22;2011;48.238;13.948;2022-12-18T03:44:38;-3.40;99.90
3994;DHT22;2011;48.238;13.948;2022-12-18T03:47:09;-3.40;99.90
3994;DHT22;2011;48.238;13.948;2022-12-18T03:49:39;-3.40;99.90
3994;DHT22;2011;48.238;13.948;2022-12-18T03:52:14;-3.40;99.90
3994;DHT22;2011;48.238;13.948;2022-12-18T03:54:44;-3.50;99.90
3994;DHT22;2011;48.238;13.948;2022-12-18T03:57:15;-3.50;99.90
3994;DHT22;2011;48.238;13.948;2022-12-18T03:59:44;-3.50;99.90
3994;DHT22;2011;48.238;13.948;2022-12-18T04:02:12;-3.50;99.90
3994;DHT22;2011;48.238;13.948;2022-12-18T04:04:40;-3.50;99.90
3994;DHT22;2011;48.238;13.948;2022-12-18T04:07:09;-3.50;99.90
3994;DHT22;2011;48.238;13.948;2022-12-18T04:09:36;-3.60;99.90
3994;DHT22;2011;48.238;13.948;2022-12-18T04:12:05;-3.60;99.90
3994;DHT22;2011;48.238;13.948;2022-12-18T04:14:33;-3.70;99.90
3994;DHT22;2011;48.238;13.948;2022-12-18T04:17:01;-3.70;99.90
3994;DHT22;2011;48.238;13.948;2022-12-18T04:19:28;-3.80;99.90
3994;DHT22;2011;48.238;13.948;2022-12-18T04:21:55;-3.80;99.90
3994;DHT22;2011;48.238;13.948;2022-12-18T04:24:22;-3.80;99.90
3994;DHT22;2011;48.238;13.948;2022-12-18T04:26:48;-3.80;99.90
3994;DHT22;2011;48.238;13.948;2022-12-18T04:29:16;-3.80;99.90
3994;DHT22;2011;48.238;13.948;2022-12-18T04:31:44;-3.90;99.90
3994;DHT22;2011;48.238;13.948;2022-12-18T04:34:11;-3.90;99.90
3994;DHT22;2011;48.238;13.948;2022-12-18T04:36:38;-3.90;99.90
3994;DHT22;2011;48.238;13.948;2022-12-18T04:39:04;-3.90;99.90
3994;DHT22;2011;48.238;13.948;2022-12-18T04:41:31;-3.80;99.90
3994;DHT22;2011;48.238;13.948;2022-12-18T04:43:58;-3.80;99.90
3994;DHT22;2011;48.238;13.948;2022-12-18T04:46:25;-3.70;99.90
3994;DHT22;2011;48.238;13.948;2022-12-18T04:48:53;-3.70;99.90
3994;DHT22;2011;48.238;13.948;2022-12-18T04:51:20;-3.70;99.90
3994;DHT22;2011;48.238;13.948;2022-12-18T04:53:47;-3.70;99.90
3994;DHT22;2011;48.238;13.948;2022-12-18T04:56:15;-3.70;99.90
3994;DHT22;2011;48.238;13.948;2022-12-18T04:58:44;-3.60;99.90
3994;DHT22;2011;48.238;13.948;2022-12-18T05:01:12;-3.60;99.90
3994;DHT22;2011;48.238;13.948;2022-12-18T05:03:40;-3.60;99.90
3994;DHT22;2011;48.238;13.948;2022-12-18T05:06:08;-3.60;99.90
3994;DHT22;2011;48.238;13.948;2022-12-18T05:08:35;-3.60;99.90
3994;DHT22;2011;48.238;13.948;2022-12-18T05:11:04;-3.60;99.90
3994;DHT22;2011;48.238;13.948;2022-12-18T05:13:34;-3.60;99.90
3994;DHT22;2011;48.238;13.948;2022-12-18T05:16:02;-3.60;99.90
3994;DHT22;2011;48.238;13.948;2022-12-18T05:18:29;-3.60;99.90
3994;DHT22;2011;48.238;13.948;2022-12-18T05:20:57;-3.60;99.90
3994;DHT22;2011;48.238;13.948;2022-12-18T05:23:25;-3.60;99.90
3994;DHT22;2011;48.238;13.948;2022-12-18T05:25:52;-3.70;99.90
3994;DHT22;2011;48.238;13.948;2022-12-18T05:28:20;-3.80;99.90
3994;DHT22;2011;48.238;13.948;2022-12-18T05:30:49;-3.80;99.90
3994;DHT22;2011;48.238;13.948;2022-12-18T05:33:16;-3.80;99.90
3994;DHT22;2011;48.238;13.948;2022-12-18T05:35:43;-3.80;99.90
3994;DHT22;2011;48.238;13.948;2022-12-18T05:38:10;-3.80;99.90
3994;DHT22;2011;48.238;13.948;2022-12-18T05:40:41;-3.80;99.90
3994;DHT22;2011;48.238;13.948;2022-12-18T05:43:09;-3.90;99.90
3994;DHT22;2011;48.238;13.948;2022-12-18T05:45:37;-3.90;99.90
3994;DHT22;2011;48.238;13.948;2022-12-18T05:48:05;-3.90;99.90
3994;DHT22;2011;48.238;13.948;2022-12-18T05:50:34;-4.00;99.90
3994;DHT22;2011;48.238;13.948;2022-12-18T05:53:02;-4.00;99.90
3994;DHT22;2011;48.238;13.948;2022-12-18T05:55:32;-4.00;99.90
3994;DHT22;2011;48.238;13.948;2022-12-18T05:58:00;-4.00;99.90
3994;DHT22;2011;48.238;13.948;2022-12-18T06:00:27;-3.90;99.90
3994;DHT22;2011;48.238;13.948;2022-12-18T06:02:54;-3.90;99.90
3994;DHT22;2011;48.238;13.948;2022-12-18T06:05:21;-3.90;99.90
3994;DHT22;2011;48.238;13.948;2022-12-18T06:07:48;-3.90;99.90
3994;DHT22;2011;48.238;13.948;2022-12-18T06:10:15;-3.90;99.90
3994;DHT22;2011;48.238;13.948;2022-12-18T06:12:42;-3.90;99.90
3994;DHT22;2011;48.238;13.948;2022-12-18T06:15:11;-3.80;99.90
3994;DHT22;2011;48.238;13.948;2022-12-18T06:17:37;-3.80;99.90
3994;DHT22;2011;48.238;13.948;2022-12-18T06:20:05;-3.80;99.90
3994;DHT22;2011;48.238;13.948;2022-12-18T06:22:32;-3.80;99.90
3994;DHT22;2011;48.238;13.948;2022-12-18T06:25:00;-3.80;99.90
3994;DHT22;2011;48.238;13.948;2022-12-18T06:27:27;-3.90;99.90
3994;DHT22;2011;48.238;13.948;2022-12-18T06:29:54;-3.90;99.90
3994;DHT22;2011;48.238;13.948;2022-12-18T06:32:22;-3.90;99.90
3994;DHT22;2011;48.238;13.948;2022-12-18T06:34:49;-4.00;99.90
3994;DHT22;2011;48.238;13.948;2022-12-18T06:37:16;-4.10;99.90
3994;DHT22;2011;48.238;13.948;2022-12-18T06:39:43;-4.10;99.90
3994;DHT22;2011;48.238;13.948;2022-12-18T06:42:09;-4.10;99.90
3994;DHT22;2011;48.238;13.948;2022-12-18T06:44:36;-4.10;99.90
3994;DHT22;2011;48.238;13.948;2022-12-18T06:47:03;-4.10;99.90
3994;DHT22;2011;48.238;13.948;2022-12-18T06:49:32;-4.10;99.90
3994;DHT22;2011;48.238;13.948;2022-12-18T06:51:58;-4.10;99.90
3994;DHT22;2011;48.238;13.948;2022-12-18T06:54:25;-4.20;99.90
3994;DHT22;2011;48.238;13.948;2022-12-18T06:56:52;-4.20;99.90
3994;DHT22;2011;48.238;13.948;2022-12-18T06:59:21;-4.20;99.90
3994;DHT22;2011;48.238;13.948;2022-12-18T07:01:48;-4.20;99.90
3994;DHT22;2011;48.238;13.948;2022-12-18T07:04:15;-4.20;99.90
3994;DHT22;2011;48.238;13.948;2022-12-18T07:06:43;-4.20;99.90
3994;DHT22;2011;48.238;13.948;2022-12-18T07:09:10;-4.20;99.90
3994;DHT22;2011;48.238;13.948;2022-12-18T07:11:37;-4.20;99.90
3994;DHT22;2011;48.238;13.948;2022-12-18T07:14:04;-4.20;99.90
3994;DHT22;2011;48.238;13.948;2022-12-18T07:16:30;-4.10;99.90
3994;DHT22;2011;48.238;13.948;2022-12-18T07:18:57;-4.10;99.90
3994;DHT22;2011;48.238;13.948;2022-12-18T07:21:25;-4.10;99.90
3994;DHT22;2011;48.238;13.948;2022-12-18T07:23:53;-4.10;99.90
3994;DHT22;2011;48.238;13.948;2022-12-18T07:26:21;-4.00;99.90
3994;DHT22;2011;48.238;13.948;2022-12-18T07:28:48;-4.10;99.90
3994;DHT22;2011;48.238;13.948;2022-12-18T07:31:17;-4.10;99.90
3994;DHT22;2011;48.238;13.948;2022-12-18T07:33:45;-4.10;99.90
3994;DHT22;2011;48.238;13.948;2022-12-18T07:36:12;-4.10;99.90
3994;DHT22;2011;48.238;13.948;2022-12-18T07:38:39;-4.10;99.90
3994;DHT22;2011;48.238;13.948;2022-12-18T07:41:09;-4.10;99.90
3994;DHT22;2011;48.238;13.948;2022-12-18T07:43:37;-4.00;99.90
3994;DHT22;2011;48.238;13.948;2022-12-18T07:46:05;-4.00;99.90
3994;DHT22;2011;48.238;13.948;2022-12-18T07:48:32;-4.00;99.90
3994;DHT22;2011;48.238;13.948;2022-12-18T07:51:00;-3.90;99.90
3994;DHT22;2011;48.238;13.948;2022-12-18T07:53:27;-3.80;99.90
3994;DHT22;2011;48.238;13.948;2022-12-18T07:55:55;-3.80;99.90
3994;DHT22;2011;48.238;13.948;2022-12-18T07:58:24;-3.80;99.90
3994;DHT22;2011;48.238;13.948;2022-12-18T08:00:51;-3.80;99.90
3994;DHT22;2011;48.238;13.948;2022-12-18T08:03:20;-3.70;99.90
3994;DHT22;2011;48.238;13.948;2022-12-18T08:05:50;-3.70;99.90
3994;DHT22;2011;48.238;13.948;2022-12-18T08:08:17;-3.60;99.90
3994;DHT22;2011;48.238;13.948;2022-12-18T08:10:44;-3.60;99.90
3994;DHT22;2011;48.238;13.948;2022-12-18T08:13:11;-3.60;99.90
3994;DHT22;2011;48.238;13.948;2022-12-18T08:15:39;-3.50;99.90
3994;DHT22;2011;48.238;13.948;2022-12-18T08:18:06;-3.50;99.90
3994;DHT22;2011;48.238;13.948;2022-12-18T08:20:33;-3.50;99.90
3994;DHT22;2011;48.238;13.948;2022-12-18T08:23:00;-3.50;99.90
3994;DHT22;2011;48.238;13.948;2022-12-18T08:25:27;-3.50;99.90
3994;DHT22;2011;48.238;13.948;2022-12-18T08:27:54;-3.50;99.90
3994;DHT22;2011;48.238;13.948;2022-12-18T08:30:22;-3.40;99.90
3994;DHT22;2011;48.238;13.948;2022-12-18T08:32:52;-3.40;99.90
3994;DHT22;2011;48.238;13.948;2022-12-18T08:35:19;-3.40;99.90
3994;DHT22;2011;48.238;13.948;2022-12-18T08:37:46;-3.30;99.90
3994;DHT22;2011;48.238;13.948;2022-12-18T08:40:13;-3.30;99.90
3994;DHT22;2011;48.238;13.948;2022-12-18T08:42:40;-3.20;99.90
3994;DHT22;2011;48.238;13.948;2022-12-18T08:45:24;-3.20;99.90
3994;DHT22;2011;48.238;13.948;2022-12-18T08:47:53;-3.10;99.90
3994;DHT22;2011;48.238;13.948;2022-12-18T08:50:20;-3.10;99.90
3994;DHT22;2011;48.238;13.948;2022-12-18T08:52:47;-3.00;99.90
3994;DHT22;2011;48.238;13.948;2022-12-18T08:55:14;-3.00;99.90
3994;DHT22;2011;48.238;13.948;2022-12-18T08:57:41;-2.90;99.90
3994;DHT22;2011;48.238;13.948;2022-12-18T09:00:10;-2.80;99.90
3994;DHT22;2011;48.238;13.948;2022-12-18T09:02:38;-2.80;99.90
3994;DHT22;2011;48.238;13.948;2022-12-18T09:05:07;-2.70;99.90
3994;DHT22;2011;48.238;13.948;2022-12-18T09:07:34;-2.60;99.90
3994;DHT22;2011;48.238;13.948;2022-12-18T09:10:01;-2.60;99.90
3994;DHT22;2011;48.238;13.948;2022-12-18T09:12:28;-2.50;99.90
3994;DHT22;2011;48.238;13.948;2022-12-18T09:14:55;-2.40;99.90
3994;DHT22;2011;48.238;13.948;2022-12-18T09:17:23;-2.30;99.90
3994;DHT22;2011;48.238;13.948;2022-12-18T09:19:49;-2.40;99.90
3994;DHT22;2011;48.238;13.948;2022-12-18T09:22:18;-2.30;99.90
3994;DHT22;2011;48.238;13.948;2022-12-18T09:24:45;-2.30;99.90
3994;DHT22;2011;48.238;13.948;2022-12-18T09:27:12;-2.30;99.90
3994;DHT22;2011;48.238;13.948;2022-12-18T09:29:39;-2.20;99.90
3994;DHT22;2011;48.238;13.948;2022-12-18T09:32:06;-2.20;99.90
3994;DHT22;2011;48.238;13.948;2022-12-18T09:34:33;-2.10;99.90
3994;DHT22;2011;48.238;13.948;2022-12-18T09:37:00;-2.10;99.90
3994;DHT22;2011;48.238;13.948;2022-12-18T09:39:28;-2.10;99.90
3994;DHT22;2011;48.238;13.948;2022-12-18T09:41:57;-2.10;99.90
3994;DHT22;2011;48.238;13.948;2022-12-18T09:44:26;-2.10;99.90
3994;DHT22;2011;48.238;13.948;2022-12-18T09:47:02;-2.20;99.90
3994;DHT22;2011;48.238;13.948;2022-12-18T09:49:34;-2.20;99.90
3994;DHT22;2011;48.238;13.948;2022-12-18T09:52:05;-2.10;99.90
3994;DHT22;2011;48.238;13.948;2022-12-18T09:54:43;-2.00;99.90
3994;DHT22;2011;48.238;13.948;2022-12-18T09:57:14;-1.90;99.90
3994;DHT22;2011;48.238;13.948;2022-12-18T09:59:45;-2.00;99.90
3994;DHT22;2011;48.238;13.948;2022-12-18T10:02:17;-1.90;99.90
3994;DHT22;2011;48.238;13.948;2022-12-18T10:04:49;-1.90;99.90
3994;DHT22;2011;48.238;13.948;2022-12-18T10:07:26;-1.90;99.90
3994;DHT22;2011;48.238;13.948;2022-12-18T10:10:02;-2.00;99.90
3994;DHT22;2011;48.238;13.948;2022-12-18T10:12:37;-1.90;99.90
3994;DHT22;2011;48.238;13.948;2022-12-18T10:15:15;-1.70;99.90
3994;DHT22;2011;48.238;13.948;2022-12-18T10:17:47;-1.70;99.90
3994;DHT22;2011;48.238;13.948;2022-12-18T10:20:18;-1.60;99.90
3994;DHT22;2011;48.238;13.948;2022-12-18T10:22:55;-1.60;99.90
3994;DHT22;2011;48.238;13.948;2022-12-18T10:25:30;-1.60;99.90
3994;DHT22;2011;48.238;13.948;2022-12-18T10:28:06;-1.60;99.90
3994;DHT22;2011;48.238;13.948;2022-12-18T10:30:34;-1.60;99.90
3994;DHT22;2011;48.238;13.948;2022-12-18T10:33:01;-1.70;99.90
3994;DHT22;2011;48.238;13.948;2022-12-18T10:35:29;-1.60;99.90
3994;DHT22;2011;48.238;13.948;2022-12-18T10:38:01;-1.60;99.90
3994;DHT22;2011;48.238;13.948;2022-12-18T10:40:30;-1.50;99.90
3994;DHT22;2011;48.238;13.948;2022-12-18T10:43:05;-1.50;99.90
3994;DHT22;2011;48.238;13.948;2022-12-18T10:45:33;-1.40;99.90
3994;DHT22;2011;48.238;13.948;2022-12-18T10:48:00;-1.40;99.90
3994;DHT22;2011;48.238;13.948;2022-12-18T10:50:30;-1.30;99.90
3994;DHT22;2011;48.238;13.948;2022-12-18T10:52:59;-1.20;99.90
3994;DHT22;2011;48.238;13.948;2022-12-18T10:55:32;-1.20;99.90
3994;DHT22;2011;48.238;13.948;2022-12-18T10:58:20;-1.10;99.90
3994;DHT22;2011;48.238;13.948;2022-12-18T11:01:02;-1.10;99.90
3994;DHT22;2011;48.238;13.948;2022-12-18T11:03:31;-1.00;99.90
3994;DHT22;2011;48.238;13.948;2022-12-18T11:06:06;-1.00;99.90
3994;DHT22;2011;48.238;13.948;2022-12-18T11:08:33;-1.00;99.90
3994;DHT22;2011;48.238;13.948;2022-12-18T11:11:02;-0.90;99.90
3994;DHT22;2011;48.238;13.948;2022-12-18T11:13:30;-1.00;99.90
3994;DHT22;2011;48.238;13.948;2022-12-18T11:15:58;-1.00;99.90
3994;DHT22;2011;48.238;13.948;2022-12-18T11:18:28;-0.90;99.90
3994;DHT22;2011;48.238;13.948;2022-12-18T11:20:56;-0.80;99.90
3994;DHT22;2011;48.238;13.948;2022-12-18T11:23:24;-0.70;99.90
3994;DHT22;2011;48.238;13.948;2022-12-18T11:25:54;-0.70;99.90
3994;DHT22;2011;48.238;13.948;2022-12-18T11:28:29;-0.50;99.90
3994;DHT22;2011;48.238;13.948;2022-12-18T11:31:22;-0.40;99.90
3994;DHT22;2011;48.238;13.948;2022-12-18T11:33:54;-0.30;99.90
3994;DHT22;2011;48.238;13.948;2022-12-18T11:36:23;-0.20;99.90
3994;DHT22;2011;48.238;13.948;2022-12-18T11:38:52;-0.20;99.90
3994;DHT22;2011;48.238;13.948;2022-12-18T11:41:24;-0.10;99.90
3994;DHT22;2011;48.238;13.948;2022-12-18T11:44:18;0.00;99.90
3994;DHT22;2011;48.238;13.948;2022-12-18T11:46:52;0.00;99.90
3994;DHT22;2011;48.238;13.948;2022-12-18T11:49:25;-0.10;99.90
3994;DHT22;2011;48.238;13.948;2022-12-18T11:51:58;0.00;99.90
3994;DHT22;2011;48.238;13.948;2022-12-18T11:54:25;0.00;99.90
3994;DHT22;2011;48.238;13.948;2022-12-18T11:56:58;0.00;99.90
3994;DHT22;2011;48.238;13.948;2022-12-18T11:59:33;-0.10;99.90
3994;DHT22;2011;48.238;13.948;2022-12-18T12:02:11;0.00;99.90
3994;DHT22;2011;48.238;13.948;2022-12-18T12:05:04;0.00;99.90
3994;DHT22;2011;48.238;13.948;2022-12-18T12:07:41;0.00;99.90
3994;DHT22;2011;48.238;13.948;2022-12-18T12:10:23;0.10;99.90
3994;DHT22;2011;48.238;13.948;2022-12-18T12:13:06;0.20;99.90
3994;DHT22;2011;48.238;13.948;2022-12-18T12:15:43;0.20;99.90
3994;DHT22;2011;48.238;13.948;2022-12-18T12:18:21;0.30;99.90
3994;DHT22;2011;48.238;13.948;2022-12-18T12:21:04;0.30;99.90
3994;DHT22;2011;48.238;13.948;2022-12-18T12:23:41;0.30;99.90
3994;DHT22;2011;48.238;13.948;2022-12-18T12:26:12;0.30;99.90
3994;DHT22;2011;48.238;13.948;2022-12-18T12:29:01;0.40;99.90
3994;DHT22;2011;48.238;13.948;2022-12-18T12:31:45;0.40;99.90
3994;DHT22;2011;48.238;13.948;2022-12-18T12:34:20;0.50;99.90
3994;DHT22;2011;48.238;13.948;2022-12-18T12:36:59;0.40;99.90
3994;DHT22;2011;48.238;13.948;2022-12-18T12:39:31;0.40;99.90
3994;DHT22;2011;48.238;13.948;2022-12-18T12:42:00;0.40;99.90
3994;DHT22;2011;48.238;13.948;2022-12-18T12:44:48;0.50;99.90
3994;DHT22;2011;48.238;13.948;2022-12-18T12:47:21;0.60;99.90
3994;DHT22;2011;48.238;13.948;2022-12-18T12:49:50;0.60;99.90
3994;DHT22;2011;48.238;13.948;2022-12-18T12:52:24;0.60;99.90
3994;DHT22;2011;48.238;13.948;2022-12-18T12:54:54;0.60;99.90
3994;DHT22;2011;48.238;13.948;2022-12-18T12:57:24;0.50;99.90
3994;DHT22;2011;48.238;13.948;2022-12-18T13:00:00;0.40;99.90
3994;DHT22;2011;48.238;13.948;2022-12-18T13:02:34;0.50;99.90
3994;DHT22;2011;48.238;13.948;2022-12-18T13:05:09;0.50;99.90
3994;DHT22;2011;48.238;13.948;2022-12-18T13:07:40;0.40;99.90
3994;DHT22;2011;48.238;13.948;2022-12-18T13:10:22;0.40;99.90
3994;DHT22;2011;48.238;13.948;2022-12-18T13:12:57;0.50;99.90
3994;DHT22;2011;48.238;13.948;2022-12-18T13:15:35;0.40;99.90
3994;DHT22;2011;48.238;13.948;2022-12-18T13:18:11;0.40;99.90
3994;DHT22;2011;48.238;13.948;2022-12-18T13:20:41;0.40;99.90
3994;DHT22;2011;48.238;13.948;2022-12-18T13:23:32;0.40;99.90
3994;DHT22;2011;48.238;13.948;2022-12-18T13:26:32;0.40;99.90
3994;DHT22;2011;48.238;13.948;2022-12-18T13:29:00;0.40;99.90
3994;DHT22;2011;48.238;13.948;2022-12-18T13:31:58;0.40;99.90
3994;DHT22;2011;48.238;13.948;2022-12-18T13:34:28;0.40;99.90
3994;DHT22;2011;48.238;13.948;2022-12-18T13:37:35;0.40;99.90
3994;DHT22;2011;48.238;13.948;2022-12-18T13:39:44;0.40;99.90
3994;DHT22;2011;48.238;13.948;2022-12-18T13:42:39;0.40;99.90
3994;DHT22;2011;48.238;13.948;2022-12-18T13:45:43;0.30;99.90
3994;DHT22;2011;48.238;13.948;2022-12-18T13:48:20;0.20;99.90
3994;DHT22;2011;48.238;13.948;2022-12-18T13:50:57;0.10;99.90
3994;DHT22;2011;48.238;13.948;2022-12-18T13:53:28;-0.10;99.90
3994;DHT22;2011;48.238;13.948;2022-12-18T13:55:57;-0.20;99.90
3994;DHT22;2011;48.238;13.948;2022-12-18T13:58:24;-0.20;99.90
3994;DHT22;2011;48.238;13.948;2022-12-18T14:00:51;-0.30;99.90
3994;DHT22;2011;48.238;13.948;2022-12-18T14:03:21;-0.50;99.90
3994;DHT22;2011;48.238;13.948;2022-12-18T14:05:55;-0.50;99.90
3994;DHT22;2011;48.238;13.948;2022-12-18T14:08:29;-0.70;99.90
3994;DHT22;2011;48.238;13.948;2022-12-18T14:10:59;-0.70;99.90
3994;DHT22;2011;48.238;13.948;2022-12-18T14:13:31;-0.80;99.90
3994;DHT22;2011;48.238;13.948;2022-12-18T14:16:00;-0.90;99.90
3994;DHT22;2011;48.238;13.948;2022-12-18T14:18:33;-0.90;99.90
3994;DHT22;2011;48.238;13.948;2022-12-18T14:21:04;-1.10;99.90
3994;DHT22;2011;48.238;13.948;2022-12-18T14:23:36;-1.20;99.90
3994;DHT22;2011;48.238;13.948;2022-12-18T14:26:19;-1.30;99.90
3994;DHT22;2011;48.238;13.948;2022-12-18T14:28:47;-1.40;99.90
3994;DHT22;2011;48.238;13.948;2022-12-18T14:31:18;-1.50;99.90
3994;DHT22;2011;48.238;13.948;2022-12-18T14:33:46;-1.60;99.90
3994;DHT22;2011;48.238;13.948;2022-12-18T14:36:17;-1.70;99.90
3994;DHT22;2011;48.238;13.948;2022-12-18T14:38:48;-1.70;99.90
3994;DHT22;2011;48.238;13.948;2022-12-18T14:41:17;-1.80;99.90
3994;DHT22;2011;48.238;13.948;2022-12-18T14:43:45;-1.80;99.90
3994;DHT22;2011;48.238;13.948;2022-12-18T14:46:32;-1.90;99.90
3994;DHT22;2011;48.238;13.948;2022-12-18T14:49:00;-1.90;99.90
3994;DHT22;2011;48.238;13.948;2022-12-18T14:51:31;-2.00;99.90
3994;DHT22;2011;48.238;13.948;2022-12-18T14:54:01;-2.10;99.90
3994;DHT22;2011;48.238;13.948;2022-12-18T14:56:30;-2.10;99.90
3994;DHT22;2011;48.238;13.948;2022-12-18T14:58:58;-2.20;99.90
3994;DHT22;2011;48.238;13.948;2022-12-18T15:01:28;-2.20;99.90
3994;DHT22;2011;48.238;13.948;2022-12-18T15:03:57;-2.20;99.90
3994;DHT22;2011;48.238;13.948;2022-12-18T15:06:30;-2.20;99.90
3994;DHT22;2011;48.238;13.948;2022-12-18T15:08:58;-2.20;99.90
3994;DHT22;2011;48.238;13.948;2022-12-18T15:11:34;-2.20;99.90
3994;DHT22;2011;48.238;13.948;2022-12-18T15:14:22;-2.30;99.90
3994;DHT22;2011;48.238;13.948;2022-12-18T15:16:51;-2.30;99.90
3994;DHT22;2011;48.238;13.948;2022-12-18T15:19:20;-2.30;99.90
3994;DHT22;2011;48.238;13.948;2022-12-18T15:21:49;-2.20;99.90
3994;DHT22;2011;48.238;13.948;2022-12-18T15:24:21;-2.30;99.90
3994;DHT22;2011;48.238;13.948;2022-12-18T15:26:49;-2.30;99.90
3994;DHT22;2011;48.238;13.948;2022-12-18T15:29:19;-2.30;99.90
3994;DHT22;2011;48.238;13.948;2022-12-18T15:31:58;-2.40;99.90
3994;DHT22;2011;48.238;13.948;2022-12-18T15:34:26;-2.40;99.90
3994;DHT22;2011;48.238;13.948;2022-12-18T15:36:55;-2.50;99.90
3994;DHT22;2011;48.238;13.948;2022-12-18T15:39:22;-2.50;99.90
3994;DHT22;2011;48.238;13.948;2022-12-18T15:41:50;-2.50;99.90
3994;DHT22;2011;48.238;13.948;2022-12-18T15:44:35;-2.60;99.90
3994;DHT22;2011;48.238;13.948;2022-12-18T15:47:02;-2.60;99.90
3994;DHT22;2011;48.238;13.948;2022-12-18T15:49:29;-2.50;99.90
3994;DHT22;2011;48.238;13.948;2022-12-18T15:51:59;-2.50;99.90
3994;DHT22;2011;48.238;13.948;2022-12-18T15:54:30;-2.50;99.90
3994;DHT22;2011;48.238;13.948;2022-12-18T15:57:15;-2.50;99.90
3994;DHT22;2011;48.238;13.948;2022-12-18T15:59:52;-2.50;99.90
3994;DHT22;2011;48.238;13.948;2022-12-18T16:02:21;-2.40;99.90
3994;DHT22;2011;48.238;13.948;2022-12-18T16:04:49;-2.50;99.90
3994;DHT22;2011;48.238;13.948;2022-12-18T16:07:18;-2.50;99.90
3994;DHT22;2011;48.238;13.948;2022-12-18T16:09:48;-2.60;99.90